Terminal Aerodrome Forecast
Issued by NWS

Home | Current Version | Previous Version | Text Only | Print | Product List | Glossary On
Versions: 1 2 3 4 5 6 7 8 9 10 11 12 13 14 15 16 17 18 19 20 21 22 23 24
747
FTUS44 KLIX 270135 AAA
TAFMSY
TAF AMD
KMSY 270135Z 2702/2724 15009KT P6SM FEW025
     FM270800 17006KT P6SM BKN012
      TEMPO 2710/2714 3SM BR BKN008
     FM271500 18009KT P6SM SCT025
     FM271700 18012KT P6SM SCT050=

USA.gov is the U.S. government's official web portal to all federal, state and local government web resources and services.